Terminal Aerodrome Forecast
Issued by NWS

Home | Current Version | Previous Version | Graphics & Text | Print | Product List | Glossary On
Versions: 1 2 3 4 5 6 7 8 9 10 11 12 13 14 15 16 17 18 19 20 21 22 23
000
FTUS43 KTOP 011300 AAA
TAFFOE
TAF AMD
KFOE 011355Z 0114/0212 32022G32KT 5SM -SN BR OVC004
      TEMPO 0114/0117 2SM -SN BR SCT004 OVC010
     FM011900 32023G32KT P6SM OVC015
     FM020100 33017G22KT P6SM OVC025
     FM020600 32015KT P6SM SCT025=

USA.gov is the U.S. government's official web portal to all federal, state and local government web resources and services.